Time;durP1;ratioP1;P1;durP2;ratioP2;P2;SDS_P1;SDS_P2;PMS_P1;PMS_P2;Temp;Humidity;BMP_temperature;BMP_pressure;BME280_temperature;BME280_humidity;BME280_pressure;Samples;Min_cycle;Max_cycle;Signal;HPM_P1;HPM_P2
2021/08/21 00:01:15;;;;;;;7.00;6.33;;;17.70;99.90;;;;;;5030380;28;20621;-68
2021/08/21 00:03:44;;;;;;;7.27;6.77;;;17.70;99.90;;;;;;5031389;28;20232;-68
2021/08/21 00:06:10;;;;;;;6.80;6.30;;;17.70;99.90;;;;;;5031599;28;20205;-68
2021/08/21 00:08:37;;;;;;;6.63;6.13;;;17.80;99.90;;;;;;5031602;28;20205;-68
2021/08/21 00:11:04;;;;;;;6.63;6.13;;;17.80;99.90;;;;;;5031207;28;20209;-69
2021/08/21 00:13:31;;;;;;;6.83;6.33;;;17.80;99.90;;;;;;5031487;28;20212;-68
2021/08/21 00:15:58;;;;;;;6.30;5.80;;;17.80;99.90;;;;;;5031131;28;20212;-69
2021/08/21 00:18:26;;;;;;;6.67;6.00;;;17.80;99.90;;;;;;5031281;28;20270;-69
2021/08/21 00:20:52;;;;;;;6.20;5.70;;;17.80;99.90;;;;;;5030861;28;20229;-69
2021/08/21 00:23:19;;;;;;;6.50;6.00;;;17.80;99.90;;;;;;5030997;28;20764;-68
2021/08/21 00:25:46;;;;;;;6.77;6.10;;;17.80;99.90;;;;;;5030751;28;20205;-69
2021/08/21 00:28:12;;;;;;;7.53;7.03;;;17.80;99.90;;;;;;5031188;28;20209;-69
2021/08/21 00:30:39;;;;;;;7.40;6.90;;;17.80;99.90;;;;;;5036728;28;20201;-69
2021/08/21 00:33:06;;;;;;;7.23;6.63;;;17.80;99.90;;;;;;5042018;28;20208;-69
2021/08/21 00:35:34;;;;;;;7.13;6.67;;;17.80;99.90;;;;;;5050937;28;20201;-69
2021/08/21 00:38:00;;;;;;;7.03;6.53;;;17.80;99.90;;;;;;5050705;28;20211;-69
2021/08/21 00:40:29;;;;;;;7.30;6.60;;;17.80;99.90;;;;;;5050790;28;20212;-69
2021/08/21 00:42:56;;;;;;;6.73;6.17;;;17.80;99.90;;;;;;5050598;28;20232;-69
2021/08/21 00:45:23;;;;;;;7.00;6.50;;;17.80;99.90;;;;;;5030331;28;20348;-69
2021/08/21 00:47:50;;;;;;;7.23;6.63;;;17.80;99.90;;;;;;5030771;28;20263;-69
2021/08/21 00:50:16;;;;;;;6.90;6.40;;;17.80;99.90;;;;;;5030707;28;20290;-67
2021/08/21 00:52:44;;;;;;;7.13;6.53;;;17.80;99.90;;;;;;5030835;28;20205;-68
2021/08/21 00:55:11;;;;;;;7.60;7.10;;;17.70;99.90;;;;;;5029962;28;20734;-67
2021/08/21 00:57:38;;;;;;;6.90;6.40;;;17.80;99.90;;;;;;5030648;28;20258;-68
2021/08/21 01:00:06;;;;;;;7.07;6.67;;;17.80;99.90;;;;;;5030224;28;20649;-67
2021/08/21 01:02:33;;;;;;;7.67;7.07;;;17.80;99.90;;;;;;5030457;28;20211;-69
2021/08/21 01:05:03;;;;;;;7.73;7.13;;;17.80;99.90;;;;;;5030195;28;20283;-69
2021/08/21 01:07:33;;;;;;;7.53;6.83;;;17.80;99.90;;;;;;5029963;28;20205;-69
2021/08/21 01:10:02;;;;;;;7.20;6.60;;;17.80;99.90;;;;;;5030220;28;20255;-69
2021/08/21 01:12:29;;;;;;;7.40;6.70;;;17.80;99.90;;;;;;5029951;28;20687;-69
2021/08/21 01:14:56;;;;;;;8.20;7.50;;;17.80;99.90;;;;;;5029823;28;20271;-69
2021/08/21 01:17:23;;;;;;;8.40;7.70;;;17.80;99.90;;;;;;5030238;28;20266;-69
2021/08/21 01:19:51;;;;;;;7.73;7.00;;;17.70;99.90;;;;;;5029894;28;20359;-69
2021/08/21 01:22:19;;;;;;;7.80;7.10;;;17.70;99.90;;;;;;5029891;28;20679;-69
2021/08/21 01:24:50;;;;;;;8.47;7.53;;;17.70;99.90;;;;;;5029695;28;20662;-69
2021/08/21 01:27:19;;;;;;;7.87;7.27;;;17.60;99.90;;;;;;5030015;28;20200;-69
2021/08/21 01:29:46;;;;;;;8.53;7.37;;;17.50;99.90;;;;;;5029759;28;20619;-69
2021/08/21 01:32:13;;;;;;;8.57;7.77;;;17.50;99.90;;;;;;5029865;28;20243;-69
2021/08/21 01:34:40;;;;;;;8.03;7.33;;;17.60;99.90;;;;;;5029652;28;20259;-69
2021/08/21 01:37:08;;;;;;;8.17;7.47;;;17.60;99.90;;;;;;5029677;28;20216;-69
2021/08/21 01:39:35;;;;;;;8.07;7.40;;;17.60;99.90;;;;;;5029789;28;20239;-69
2021/08/21 01:42:03;;;;;;;7.97;7.40;;;17.60;99.90;;;;;;5029880;28;20314;-69
2021/08/21 01:44:31;;;;;;;7.23;6.73;;;17.60;99.90;;;;;;5029363;28;20264;-69
2021/08/21 01:46:57;;;;;;;8.37;7.67;;;17.60;99.90;;;;;;5029333;28;20205;-69
2021/08/21 01:49:27;;;;;;;8.00;7.27;;;17.70;99.90;;;;;;5029537;28;20205;-67
2021/08/21 01:51:54;;;;;;;7.90;7.27;;;17.70;99.90;;;;;;5029332;28;20573;-67
2021/08/21 01:54:21;;;;;;;7.33;6.70;;;17.70;99.90;;;;;;5029382;28;20235;-66
2021/08/21 01:56:50;;;;;;;7.67;7.07;;;17.70;99.90;;;;;;5029382;28;20578;-66
2021/08/21 01:59:20;;;;;;;7.83;7.13;;;17.70;99.90;;;;;;5028919;28;20276;-67
2021/08/21 02:01:48;;;;;;;7.70;7.03;;;17.70;99.90;;;;;;5029441;28;20224;-67
2021/08/21 02:04:15;;;;;;;7.70;7.00;;;17.70;99.90;;;;;;5029096;28;20283;-67
2021/08/21 02:06:43;;;;;;;7.87;7.17;;;17.70;99.90;;;;;;5029527;28;20608;-69
2021/08/21 02:09:09;;;;;;;7.20;6.57;;;17.70;99.90;;;;;;5029196;28;20216;-69
2021/08/21 02:11:36;;;;;;;7.37;6.77;;;17.70;99.90;;;;;;5028898;28;20266;-69
2021/08/21 02:14:03;;;;;;;7.97;7.30;;;17.60;99.90;;;;;;5028700;28;20939;-69
2021/08/21 02:16:30;;;;;;;7.87;7.20;;;17.70;99.90;;;;;;5028749;28;20205;-68
2021/08/21 02:18:58;;;;;;;8.40;7.70;;;17.70;99.90;;;;;;5028228;28;20205;-68
2021/08/21 02:21:25;;;;;;;8.07;7.37;;;17.60;99.90;;;;;;5028620;28;20208;-69
2021/08/21 02:23:52;;;;;;;7.57;6.97;;;17.60;99.90;;;;;;5029188;28;20229;-69
2021/08/21 02:26:18;;;;;;;7.90;7.20;;;17.70;99.90;;;;;;5028520;28;20695;-70
2021/08/21 02:28:45;;;;;;;7.70;7.10;;;17.60;99.90;;;;;;5028956;28;20205;-69
2021/08/21 02:31:12;;;;;;;7.97;7.20;;;17.60;99.90;;;;;;5028501;28;20212;-69
2021/08/21 02:33:39;;;;;;;8.17;7.17;;;17.60;99.90;;;;;;5029164;28;20221;-69
2021/08/21 02:36:07;;;;;;;7.70;7.10;;;17.60;99.90;;;;;;5028660;28;20207;-68
2021/08/21 02:38:33;;;;;;;7.80;7.20;;;17.60;99.90;;;;;;5028720;28;20236;-68
2021/08/21 02:41:00;;;;;;;7.30;6.70;;;17.60;99.90;;;;;;5028452;28;20209;-68
2021/08/21 02:43:27;;;;;;;7.63;7.00;;;17.50;99.90;;;;;;5028320;28;20725;-68
2021/08/21 02:45:53;;;;;;;7.67;7.13;;;17.50;99.90;;;;;;5028329;28;20290;-68
2021/08/21 02:48:20;;;;;;;8.40;7.70;;;17.50;99.90;;;;;;5028635;28;20212;-70
2021/08/21 02:50:47;;;;;;;7.07;6.57;;;17.50;99.90;;;;;;5028653;28;20240;-70
2021/08/21 02:53:15;;;;;;;8.30;7.50;;;17.40;99.90;;;;;;5028200;28;20622;-70
2021/08/21 02:55:41;;;;;;;8.03;7.33;;;17.40;99.90;;;;;;5028564;28;20218;-70
2021/08/21 02:58:08;;;;;;;7.30;6.70;;;17.40;99.90;;;;;;5028321;28;20209;-69
2021/08/21 03:00:34;;;;;;;8.13;7.43;;;17.40;99.90;;;;;;5028043;28;20276;-70
2021/08/21 03:03:01;;;;;;;8.90;6.90;;;17.30;99.90;;;;;;5028358;28;20215;-70
2021/08/21 03:05:28;;;;;;;7.30;6.80;;;17.30;99.90;;;;;;5028463;28;20231;-70
2021/08/21 03:07:54;;;;;;;7.97;7.37;;;17.30;99.90;;;;;;5028201;28;20209;-69
2021/08/21 03:10:22;;;;;;;7.60;7.10;;;17.30;99.90;;;;;;5028287;28;20208;-69
2021/08/21 03:12:49;;;;;;;8.30;7.53;;;17.30;99.90;;;;;;5028560;28;20262;-70
2021/08/21 03:15:16;;;;;;;8.30;7.70;;;17.20;99.90;;;;;;5028177;28;20551;-70
2021/08/21 03:17:42;;;;;;;7.97;7.20;;;17.20;99.90;;;;;;5028438;28;20258;-70
2021/08/21 03:20:10;;;;;;;7.90;7.30;;;17.20;99.90;;;;;;5028042;28;20233;-70
2021/08/21 03:22:37;;;;;;;8.20;7.43;;;17.10;99.90;;;;;;5028145;28;20208;-70
2021/08/21 03:25:04;;;;;;;7.77;7.07;;;17.10;99.90;;;;;;5028183;28;20282;-70
2021/08/21 03:27:32;;;;;;;8.20;7.57;;;17.10;99.90;;;;;;5028203;28;20208;-70
2021/08/21 03:29:58;;;;;;;8.23;7.50;;;17.10;99.90;;;;;;5028570;28;20298;-70
2021/08/21 03:32:25;;;;;;;7.83;7.23;;;17.00;99.90;;;;;;5031853;28;21014;-72
2021/08/21 03:34:52;;;;;;;8.43;7.57;;;17.10;99.90;;;;;;5032094;28;20208;-72
2021/08/21 03:37:18;;;;;;;8.60;7.80;;;17.00;99.90;;;;;;5031751;28;20765;-72
2021/08/21 03:39:45;;;;;;;8.03;7.30;;;17.00;99.90;;;;;;5031952;28;20267;-72
2021/08/21 03:42:13;;;;;;;7.67;7.07;;;16.90;99.90;;;;;;5031980;28;20248;-71
2021/08/21 03:44:41;;;;;;;7.63;7.00;;;16.90;99.90;;;;;;5031822;28;20272;-71
2021/08/21 03:47:07;;;;;;;7.67;7.10;;;16.90;99.90;;;;;;5031726;28;20262;-71
2021/08/21 03:49:34;;;;;;;7.30;6.70;;;16.90;99.90;;;;;;5031841;28;20286;-72
2021/08/21 03:52:01;;;;;;;8.53;7.73;;;16.90;99.90;;;;;;5031762;28;20247;-72
2021/08/21 03:54:27;;;;;;;7.37;6.87;;;16.80;99.90;;;;;;5031657;28;20237;-70
2021/08/21 03:56:54;;;;;;;7.30;6.80;;;16.80;99.90;;;;;;5031614;28;20262;-70
2021/08/21 03:59:20;;;;;;;9.17;8.00;;;16.80;99.90;;;;;;5031572;28;20676;-70
2021/08/21 04:01:49;;;;;;;8.27;7.47;;;16.90;99.90;;;;;;5031749;28;20258;-70
2021/08/21 04:04:15;;;;;;;7.83;7.27;;;16.90;99.90;;;;;;5031258;28;20243;-70
2021/08/21 04:06:43;;;;;;;7.87;7.27;;;16.90;99.90;;;;;;5031542;28;20240;-68
2021/08/21 04:09:10;;;;;;;8.27;7.47;;;16.90;99.90;;;;;;5031116;28;20205;-69
2021/08/21 04:11:37;;;;;;;7.90;7.10;;;16.90;99.90;;;;;;5030818;28;20709;-69
2021/08/21 04:14:03;;;;;;;7.77;7.27;;;16.90;99.90;;;;;;5031365;28;20204;-69
2021/08/21 04:16:30;;;;;;;8.63;7.87;;;16.90;99.90;;;;;;5031204;28;20244;-69
2021/08/21 04:18:58;;;;;;;8.70;7.90;;;16.90;99.90;;;;;;5031085;28;20229;-69
2021/08/21 04:21:25;;;;;;;10.20;8.20;;;16.90;99.90;;;;;;5031321;28;20219;-69
2021/08/21 04:23:53;;;;;;;8.83;8.13;;;16.90;99.90;;;;;;5031132;28;20240;-69
2021/08/21 04:26:19;;;;;;;9.03;8.13;;;16.90;99.90;;;;;;5030897;28;20248;-69
2021/08/21 04:28:46;;;;;;;8.90;8.20;;;16.90;99.90;;;;;;5031296;28;20204;-69
2021/08/21 04:31:13;;;;;;;9.00;8.10;;;16.90;99.90;;;;;;5030700;28;20668;-69
2021/08/21 04:33:39;;;;;;;8.43;7.83;;;16.90;99.90;;;;;;5031112;28;20246;-69
2021/08/21 04:36:07;;;;;;;8.60;7.90;;;16.90;99.90;;;;;;5030583;28;20271;-70
2021/08/21 04:38:34;;;;;;;8.40;7.80;;;16.90;99.90;;;;;;5030992;28;20215;-70
2021/08/21 04:41:01;;;;;;;9.47;8.47;;;16.90;99.90;;;;;;5030674;28;20228;-70
2021/08/21 04:43:27;;;;;;;9.17;8.47;;;16.90;99.90;;;;;;5030021;28;20201;-70
2021/08/21 04:45:54;;;;;;;9.07;8.23;;;16.90;99.90;;;;;;5030656;28;20240;-69
2021/08/21 04:48:20;;;;;;;9.23;8.50;;;16.90;99.90;;;;;;5030383;28;20833;-68
2021/08/21 04:50:47;;;;;;;8.37;7.77;;;16.90;99.90;;;;;;5030769;28;20513;-70
2021/08/21 04:53:15;;;;;;;9.20;8.40;;;17.00;99.90;;;;;;5030640;28;20722;-70
2021/08/21 04:55:42;;;;;;;9.43;8.63;;;17.00;99.90;;;;;;5030218;28;20613;-70
2021/08/21 04:58:08;;;;;;;9.63;8.80;;;17.00;99.90;;;;;;5030280;28;20232;-69
2021/08/21 05:00:35;;;;;;;9.87;9.07;;;17.00;99.90;;;;;;5029987;28;20264;-69
2021/08/21 05:03:01;;;;;;;9.17;8.47;;;17.10;99.90;;;;;;5030359;28;20248;-69
2021/08/21 05:05:30;;;;;;;10.13;9.13;;;17.10;99.90;;;;;;5030341;28;20694;-69
2021/08/21 05:07:56;;;;;;;9.80;9.00;;;17.10;99.90;;;;;;5030403;28;20204;-69
2021/08/21 05:10:24;;;;;;;9.33;8.63;;;17.10;99.90;;;;;;5029936;28;20208;-69
2021/08/21 05:12:51;;;;;;;10.57;9.67;;;17.10;99.90;;;;;;5030319;28;20208;-68
2021/08/21 05:15:18;;;;;;;9.90;9.10;;;17.10;99.90;;;;;;5030112;28;20213;-68
2021/08/21 05:17:45;;;;;;;9.50;8.73;;;17.10;99.90;;;;;;5029890;28;20664;-69
2021/08/21 05:20:17;;;;;;;10.20;9.17;;;17.20;99.90;;;;;;5029469;28;20599;-68
2021/08/21 05:22:59;;;;;;;10.27;9.37;;;17.10;99.90;;;;;;5029803;28;20197;-69
2021/08/21 05:25:27;;;;;;;9.57;8.87;;;17.10;99.90;;;;;;5029829;28;20311;-69
2021/08/21 05:27:53;;;;;;;10.17;9.27;;;17.10;99.90;;;;;;5030000;28;20205;-69
2021/08/21 05:30:20;;;;;;;10.77;9.77;;;17.20;99.90;;;;;;5029900;28;20263;-69
2021/08/21 05:32:47;;;;;;;9.97;9.10;;;17.20;99.90;;;;;;5030173;28;20204;-69
2021/08/21 05:35:13;;;;;;;10.80;9.80;;;17.20;99.90;;;;;;5029854;28;20244;-70
2021/08/21 05:37:40;;;;;;;11.00;10.13;;;17.20;99.90;;;;;;5029614;28;20216;-69
2021/08/21 05:40:08;;;;;;;9.40;8.50;;;17.30;99.90;;;;;;5029475;28;20266;-69
2021/08/21 05:42:36;;;;;;;10.43;9.53;;;17.30;99.90;;;;;;5029645;28;20232;-69
2021/08/21 05:45:03;;;;;;;9.50;8.70;;;17.30;99.90;;;;;;5029508;28;20237;-68
2021/08/21 05:47:30;;;;;;;10.27;9.47;;;17.30;99.90;;;;;;5029866;28;20205;-69
2021/08/21 05:50:01;;;;;;;9.30;8.60;;;17.40;99.90;;;;;;5029547;28;20205;-68
2021/08/21 05:52:27;;;;;;;9.80;9.00;;;17.40;99.90;;;;;;5029571;28;20199;-69
2021/08/21 05:54:54;;;;;;;10.30;9.43;;;17.40;99.90;;;;;;5028390;28;20252;-69
2021/08/21 05:57:21;;;;;;;10.40;9.50;;;17.40;99.90;;;;;;5029223;28;20209;-69
2021/08/21 05:59:49;;;;;;;10.13;9.10;;;17.40;99.90;;;;;;5029230;28;20295;-68
2021/08/21 06:02:15;;;;;;;10.30;9.30;;;17.40;99.90;;;;;;5029299;28;20271;-68
2021/08/21 06:04:42;;;;;;;10.00;9.10;;;17.50;99.90;;;;;;5029394;28;20208;-68
2021/08/21 06:07:08;;;;;;;9.60;8.50;;;17.50;99.90;;;;;;5029283;28;20256;-69
2021/08/21 06:09:35;;;;;;;9.77;8.97;;;17.50;99.90;;;;;;5029105;28;20748;-69
2021/08/21 06:12:02;;;;;;;10.40;9.53;;;17.40;99.90;;;;;;5029114;28;20284;-69
2021/08/21 06:14:31;;;;;;;10.70;9.80;;;17.40;99.90;;;;;;5029168;28;20708;-69
2021/08/21 06:16:59;;;;;;;10.20;9.40;;;17.40;99.90;;;;;;5029208;28;20236;-69
2021/08/21 06:19:25;;;;;;;10.80;9.90;;;17.40;99.90;;;;;;5028949;28;20282;-69
2021/08/21 06:21:52;;;;;;;10.30;9.30;;;17.40;99.90;;;;;;5028724;28;20248;-68
2021/08/21 06:24:18;;;;;;;11.27;10.17;;;17.50;99.90;;;;;;5028903;28;20205;-70
2021/08/21 06:26:45;;;;;;;9.17;8.53;;;17.50;99.90;;;;;;5028644;28;20632;-70
2021/08/21 06:29:12;;;;;;;9.40;8.57;;;17.60;99.90;;;;;;5028931;28;20638;-70
2021/08/21 06:31:38;;;;;;;9.23;8.40;;;17.60;99.90;;;;;;5029083;28;20258;-69
2021/08/21 06:34:06;;;;;;;9.83;8.87;;;17.70;99.90;;;;;;5028884;28;20212;-69
2021/08/21 06:36:33;;;;;;;9.70;8.63;;;17.70;99.90;;;;;;5028664;28;20282;-69
2021/08/21 06:38:59;;;;;;;8.90;8.10;;;17.80;99.90;;;;;;5028745;28;20279;-69
2021/08/21 06:41:26;;;;;;;10.00;8.93;;;17.80;99.90;;;;;;5028348;28;20228;-70
2021/08/21 06:43:52;;;;;;;8.10;7.50;;;17.90;99.90;;;;;;5028573;28;20229;-70
2021/08/21 06:46:19;;;;;;;7.83;7.20;;;18.00;99.90;;;;;;5028321;28;20232;-70
2021/08/21 06:48:46;;;;;;;8.17;7.57;;;18.00;99.90;;;;;;5028532;28;20671;-70
2021/08/21 06:51:14;;;;;;;7.70;7.00;;;18.10;99.90;;;;;;5028421;28;20240;-70
2021/08/21 06:53:41;;;;;;;7.67;6.97;;;18.20;99.90;;;;;;5028659;28;20220;-70
2021/08/21 06:56:08;;;;;;;6.97;6.40;;;18.20;99.90;;;;;;5027970;28;20240;-70
2021/08/21 06:58:34;;;;;;;8.03;7.33;;;18.30;99.90;;;;;;5028368;28;20227;-70
2021/08/21 07:01:01;;;;;;;8.20;7.50;;;18.30;99.90;;;;;;5028346;28;20225;-69
2021/08/21 07:03:27;;;;;;;9.67;7.67;;;18.50;99.90;;;;;;5028393;28;20255;-69
2021/08/21 07:05:54;;;;;;;7.30;6.10;;;18.50;99.90;;;;;;5028007;28;20710;-69
2021/08/21 07:08:22;;;;;;;6.63;6.03;;;18.50;99.90;;;;;;5028250;28;20247;-69
2021/08/21 07:10:49;;;;;;;7.07;5.93;;;18.60;99.90;;;;;;5028281;28;20760;-69
2021/08/21 07:13:16;;;;;;;6.80;6.17;;;18.60;99.90;;;;;;5028497;28;20223;-69
2021/08/21 07:15:42;;;;;;;7.30;6.57;;;18.70;99.90;;;;;;5028559;28;20205;-69
2021/08/21 07:18:09;;;;;;;7.20;6.50;;;18.80;99.90;;;;;;5028161;28;20267;-69
2021/08/21 07:20:36;;;;;;;6.60;6.10;;;18.80;99.90;;;;;;5028292;28;20266;-69
2021/08/21 07:23:02;;;;;;;7.87;6.47;;;18.80;99.90;;;;;;5028437;28;20243;-69
2021/08/21 07:25:30;;;;;;;6.87;6.20;;;18.80;99.90;;;;;;5027393;28;20714;-69
2021/08/21 07:27:57;;;;;;;6.63;6.10;;;18.80;99.90;;;;;;5028169;28;20251;-69
2021/08/21 07:30:24;;;;;;;5.70;5.20;;;18.80;99.90;;;;;;5028061;28;20286;-69
2021/08/21 07:32:50;;;;;;;5.47;5.07;;;18.80;99.90;;;;;;5028104;28;20259;-69
2021/08/21 07:35:17;;;;;;;7.23;6.23;;;18.80;99.90;;;;;;5027619;28;20671;-69
2021/08/21 07:37:43;;;;;;;7.17;6.47;;;18.80;99.90;;;;;;5027581;28;20704;-69
2021/08/21 07:40:11;;;;;;;6.00;5.50;;;18.80;99.90;;;;;;5027755;28;20209;-69
2021/08/21 07:42:40;;;;;;;7.73;5.70;;;18.80;99.90;;;;;;5027921;28;20205;-69
2021/08/21 07:45:08;;;;;;;5.77;5.37;;;18.90;99.90;;;;;;5027900;28;20232;-69
2021/08/21 07:47:34;;;;;;;6.30;5.70;;;18.90;99.90;;;;;;5028119;28;20716;-70
2021/08/21 07:50:01;;;;;;;5.53;5.10;;;19.00;99.90;;;;;;5027704;28;20217;-69
2021/08/21 07:52:28;;;;;;;5.40;4.90;;;19.00;99.90;;;;;;5027730;28;20274;-70
2021/08/21 07:54:56;;;;;;;6.13;5.57;;;19.10;99.90;;;;;;5027987;28;20675;-70
2021/08/21 07:57:22;;;;;;;6.50;5.90;;;19.20;99.90;;;;;;5030563;28;20207;-68
2021/08/21 07:59:50;;;;;;;6.60;6.00;;;19.20;99.90;;;;;;5035468;28;20228;-69
2021/08/21 08:02:17;;;;;;;6.13;5.53;;;19.20;99.90;;;;;;5035266;28;20287;-69
2021/08/21 08:04:44;;;;;;;4.93;4.53;;;19.20;99.90;;;;;;5036347;28;20266;-69
2021/08/21 08:07:10;;;;;;;5.50;5.00;;;19.30;99.90;;;;;;5037426;28;20263;-68
2021/08/21 08:09:37;;;;;;;5.17;4.67;;;19.40;99.90;;;;;;5038174;28;20229;-70
2021/08/21 08:12:04;;;;;;;5.40;5.00;;;19.40;99.90;;;;;;5036205;28;20240;-70
2021/08/21 08:14:31;;;;;;;5.63;5.23;;;19.50;99.90;;;;;;5038726;28;20244;-70
2021/08/21 08:16:59;;;;;;;6.37;5.93;;;19.50;99.90;;;;;;5036939;28;20559;-70
2021/08/21 08:19:25;;;;;;;4.83;4.33;;;19.60;99.90;;;;;;5030609;28;20221;-70
2021/08/21 08:21:52;;;;;;;5.43;5.00;;;19.60;99.90;;;;;;5040745;28;20228;-70
2021/08/21 08:24:19;;;;;;;8.07;6.10;;;19.70;99.90;;;;;;5039702;28;20661;-70
2021/08/21 08:26:46;;;;;;;6.07;5.30;;;19.80;99.90;;;;;;5039855;28;20231;-69
2021/08/21 08:29:13;;;;;;;10.60;4.73;;;19.90;99.90;;;;;;5039934;28;20805;-68
2021/08/21 08:31:39;;;;;;;5.83;5.27;;;20.00;99.90;;;;;;5041797;28;20235;-68
2021/08/21 08:34:07;;;;;;;5.97;5.43;;;20.20;99.90;;;;;;5041874;28;20204;-69
2021/08/21 08:36:34;;;;;;;6.57;5.90;;;20.30;99.90;;;;;;5038874;28;20193;-69
2021/08/21 08:39:00;;;;;;;5.30;4.93;;;20.40;99.90;;;;;;5041445;28;20709;-69
2021/08/21 08:41:28;;;;;;;5.90;5.43;;;20.50;99.90;;;;;;5039222;28;20217;-69
2021/08/21 08:43:54;;;;;;;5.50;5.10;;;20.50;99.90;;;;;;5039910;28;20251;-69
2021/08/21 08:46:22;;;;;;;5.80;5.33;;;20.50;99.90;;;;;;5041142;28;20255;-69
2021/08/21 08:48:49;;;;;;;7.13;5.23;;;20.40;99.90;;;;;;5027100;28;20208;-69
2021/08/21 08:51:17;;;;;;;6.07;5.57;;;20.40;99.90;;;;;;5026641;28;20858;-69
2021/08/21 08:53:44;;;;;;;5.30;4.90;;;20.40;99.90;;;;;;5026978;28;20244;-69
2021/08/21 08:56:10;;;;;;;5.57;5.03;;;20.40;99.90;;;;;;5026762;28;20216;-69
2021/08/21 08:58:38;;;;;;;7.00;5.83;;;20.40;99.90;;;;;;5028712;28;20204;-69
2021/08/21 09:01:04;;;;;;;5.50;5.10;;;20.40;99.90;;;;;;5046790;28;20193;-70
2021/08/21 09:03:32;;;;;;;6.17;5.67;;;20.50;99.90;;;;;;5046805;28;20289;-71
2021/08/21 09:05:59;;;;;;;5.20;4.70;;;20.30;99.90;;;;;;5046909;28;20317;-70
2021/08/21 09:08:29;;;;;;;5.50;5.10;;;20.40;99.90;;;;;;5046351;28;20566;-71
2021/08/21 09:10:58;;;;;;;5.77;5.37;;;20.50;99.90;;;;;;5046535;28;20269;-70
2021/08/21 09:13:25;;;;;;;5.50;5.10;;;20.50;99.90;;;;;;5046574;28;20235;-70
2021/08/21 09:15:54;;;;;;;4.73;4.33;;;20.50;99.90;;;;;;5046468;28;20235;-71
2021/08/21 09:18:24;;;;;;;5.47;4.70;;;20.50;99.90;;;;;;5045956;28;20502;-71
2021/08/21 09:20:56;;;;;;;5.70;5.20;;;20.60;99.90;;;;;;5046125;28;20217;-70
2021/08/21 09:23:33;;;;;;;5.40;5.00;;;20.70;99.90;;;;;;5046063;28;20240;-70
2021/08/21 09:26:09;;;;;;;4.93;4.53;;;20.80;99.90;;;;;;5046318;28;20274;-71
2021/08/21 09:28:36;;;;;;;5.23;4.83;;;20.90;99.90;;;;;;5045602;28;20737;-71
2021/08/21 09:31:05;;;;;;;5.37;5.07;;;21.00;99.90;;;;;;5046344;28;20309;-70
2021/08/21 09:33:33;;;;;;;5.30;4.80;;;20.90;99.90;;;;;;5045937;28;20685;-71
2021/08/21 09:36:00;;;;;;;6.37;5.20;;;20.90;99.90;;;;;;5045793;28;20208;-70
2021/08/21 09:38:30;;;;;;;5.17;4.77;;;20.90;99.90;;;;;;5046109;28;20698;-70
2021/08/21 09:41:03;;;;;;;5.47;4.90;;;21.00;99.90;;;;;;5046066;28;20231;-71
2021/08/21 09:43:32;;;;;;;5.60;5.20;;;21.00;99.90;;;;;;5045947;28;20242;-71
2021/08/21 09:46:11;;;;;;;5.07;4.63;;;21.20;99.90;;;;;;5046025;28;20211;-71
2021/08/21 09:48:56;;;;;;;6.97;4.77;;;21.30;99.90;;;;;;5029331;28;20659;-71
2021/08/21 09:51:30;;;;;;;4.43;4.03;;;21.50;99.90;;;;;;5031635;28;20248;-72
2021/08/21 09:53:59;;;;;;;4.83;4.43;;;21.50;99.90;;;;;;5025728;28;20710;-72
2021/08/21 09:56:31;;;;;;;4.90;4.50;;;21.60;99.90;;;;;;5025588;28;20240;-72
2021/08/21 09:58:58;;;;;;;5.18;4.68;;;21.50;99.90;;;;;;5025635;28;20229;-71
2021/08/21 10:01:26;;;;;;;4.20;3.83;;;21.50;99.90;;;;;;5025800;28;20255;-72
2021/08/21 10:03:52;;;;;;;5.07;4.20;;;21.40;99.90;;;;;;5025596;28;20240;-72
2021/08/21 10:06:19;;;;;;;4.70;4.30;;;21.40;99.90;;;;;;5025311;28;20225;-71
2021/08/21 10:08:48;;;;;;;5.43;4.53;;;21.30;99.90;;;;;;5025491;28;20204;-72
2021/08/21 10:11:16;;;;;;;4.50;4.20;;;21.30;99.90;;;;;;5025092;28;20207;-71
2021/08/21 10:13:44;;;;;;;4.07;3.77;;;21.20;99.90;;;;;;5025009;28;20216;-72
2021/08/21 10:16:11;;;;;;;8.20;7.50;;;21.20;99.90;;;;;;5025305;28;20248;-71
2021/08/21 10:18:38;;;;;;;4.90;4.20;;;21.20;99.90;;;;;;5025269;28;20229;-72
2021/08/21 10:21:05;;;;;;;3.87;3.57;;;21.20;99.90;;;;;;5025190;28;20244;-71
2021/08/21 10:23:31;;;;;;;3.83;3.53;;;21.30;99.90;;;;;;5025210;28;20240;-72
2021/08/21 10:26:01;;;;;;;3.70;3.03;;;21.30;99.90;;;;;;5033051;28;20227;-71
2021/08/21 10:28:31;;;;;;;4.10;3.80;;;21.40;99.90;;;;;;5036007;28;20262;-72
2021/08/21 10:30:59;;;;;;;4.20;3.90;;;21.40;99.90;;;;;;5034582;28;20651;-72
2021/08/21 10:33:26;;;;;;;4.10;3.80;;;21.50;99.90;;;;;;5036248;28;20689;-71
2021/08/21 10:35:55;;;;;;;4.20;3.90;;;21.60;99.90;;;;;;5033638;28;20296;-72
2021/08/21 10:38:36;;;;;;;4.00;3.60;;;21.60;99.90;;;;;;5030836;28;20678;-72
2021/08/21 10:41:36;;;;;;;4.00;3.50;;;21.90;99.90;;;;;;5024232;28;20269;-72
2021/08/21 10:44:05;;;;;;;3.72;3.38;;;22.10;99.90;;;;;;5037842;28;20236;-72
2021/08/21 10:46:54;;;;;;;4.40;3.92;;;22.20;99.90;;;;;;5035023;28;20255;-72
2021/08/21 10:49:42;;;;;;;4.57;3.72;;;22.20;99.90;;;;;;5024670;28;20204;-72
2021/08/21 10:52:48;;;;;;;3.92;3.42;;;22.30;99.90;;;;;;5024541;28;20240;-72
2021/08/21 10:55:19;;;;;;;4.10;3.80;;;22.30;99.90;;;;;;5024228;28;20941;-72
2021/08/21 10:58:09;;;;;;;4.03;3.10;;;22.20;99.90;;;;;;5024773;28;20192;-70
2021/08/21 11:00:44;;;;;;;3.55;3.25;;;22.10;99.90;;;;;;5024003;28;20244;-70
2021/08/21 11:03:12;;;;;;;3.17;2.92;;;22.00;99.90;;;;;;5024778;28;20682;-70
2021/08/21 11:05:54;;;;;;;3.30;3.00;;;21.90;99.90;;;;;;5025157;28;20236;-69
2021/08/21 11:08:22;;;;;;;3.60;3.25;;;21.90;99.90;;;;;;5024482;28;20236;-70
2021/08/21 11:11:21;;;;;;;3.83;3.20;;;22.00;99.90;;;;;;5024459;28;20236;-71
2021/08/21 11:13:54;;;;;;;3.53;3.22;;;22.10;99.90;;;;;;5026825;28;20291;-71
2021/08/21 11:16:22;;;;;;;3.13;2.75;;;22.30;99.90;;;;;;5024471;28;20266;-71
2021/08/21 11:18:50;;;;;;;3.40;3.10;;;22.60;99.90;;;;;;5024555;28;20229;-71
2021/08/21 11:21:35;;;;;;;3.28;3.00;;;22.90;99.90;;;;;;5024739;28;20264;-71
2021/08/21 11:24:02;;;;;;;3.22;3.00;;;23.10;99.90;;;;;;5024763;28;20193;-71
2021/08/21 11:26:30;;;;;;;3.72;3.40;;;23.10;99.90;;;;;;5024585;28;20265;-71
2021/08/21 11:29:07;;;;;;;3.13;2.90;;;23.10;99.90;;;;;;5024799;28;20733;-71
2021/08/21 11:31:53;;;;;;;3.35;3.08;;;22.90;99.90;;;;;;5024358;28;20295;-71
2021/08/21 11:34:20;;;;;;;3.70;3.40;;;22.80;99.90;;;;;;5024292;28;20788;-71
2021/08/21 11:36:48;;;;;;;3.63;3.33;;;22.80;99.90;;;;;;5024265;28;20205;-71
2021/08/21 11:39:15;;;;;;;2.70;2.50;;;22.70;99.90;;;;;;5024249;28;20220;-71
2021/08/21 11:41:53;;;;;;;3.40;3.20;;;22.60;99.90;;;;;;5024309;28;20232;-71
2021/08/21 11:44:30;;;;;;;3.72;3.47;;;22.50;99.90;;;;;;5024148;28;20236;-71
2021/08/21 11:47:05;;;;;;;2.85;2.65;;;22.50;99.90;;;;;;5031265;28;20251;-71
2021/08/21 11:49:31;;;;;;;2.80;2.60;;;22.50;99.90;;;;;;5043874;28;20634;-71
2021/08/21 11:52:00;;;;;;;3.35;2.50;;;22.60;99.90;;;;;;5046183;28;20232;-71
2021/08/21 11:54:27;;;;;;;2.78;2.58;;;22.90;99.90;;;;;;5048043;28;20702;-71
2021/08/21 11:56:59;;;;;;;3.15;2.40;;;23.10;99.90;;;;;;5047574;28;20481;-71
2021/08/21 11:59:26;;;;;;;2.40;2.20;;;23.20;99.90;;;;;;5047355;28;20301;-71
2021/08/21 12:02:07;;;;;;;2.53;2.40;;;23.10;99.90;;;;;;5047688;28;20246;-71
2021/08/21 12:04:34;;;;;;;2.88;2.67;;;23.10;99.90;;;;;;5037909;28;20247;-71
2021/08/21 12:07:01;;;;;;;2.88;2.67;;;23.10;99.90;;;;;;5027874;28;20709;-71
2021/08/21 12:09:27;;;;;;;3.33;2.55;;;23.10;99.90;;;;;;5027526;28;20235;-71
2021/08/21 12:11:56;;;;;;;2.33;2.22;;;23.10;99.90;;;;;;5027812;28;20409;-71
2021/08/21 12:14:26;;;;;;;2.72;2.53;;;23.10;99.90;;;;;;5027620;28;20217;-71
2021/08/21 12:16:55;;;;;;;3.97;3.78;;;23.10;99.90;;;;;;5039336;28;20616;-71
2021/08/21 12:19:24;;;;;;;2.83;2.60;;;23.10;99.90;;;;;;5047546;28;20232;-71
2021/08/21 12:21:55;;;;;;;2.70;2.47;;;23.00;99.90;;;;;;5041385;28;20689;-69
2021/08/21 12:24:21;;;;;;;2.47;2.38;;;23.10;99.90;;;;;;5038136;28;20227;-71
2021/08/21 12:26:48;;;;;;;2.95;2.70;;;23.30;99.90;;;;;;5039382;28;20243;-71
2021/08/21 12:29:24;;;;;;;2.40;2.05;;;23.50;99.90;;;;;;5047191;28;20424;-71
2021/08/21 12:31:51;;;;;;;6.95;2.63;;;23.70;99.90;;;;;;5044409;28;20232;-71
2021/08/21 12:34:19;;;;;;;3.25;2.22;;;23.80;99.90;;;;;;5046370;28;20274;-70
2021/08/21 12:36:46;;;;;;;2.92;2.42;;;23.80;99.90;;;;;;5045054;28;20651;-71
2021/08/21 12:39:15;;;;;;;2.30;2.20;;;23.70;99.90;;;;;;5041634;28;20235;-71
2021/08/21 12:41:50;;;;;;;4.20;2.72;;;23.70;99.90;;;;;;5046481;28;20290;-71
2021/08/21 12:44:18;;;;;;;2.67;2.47;;;23.70;99.90;;;;;;5046828;28;20236;-71
2021/08/21 12:46:55;;;;;;;2.40;2.30;;;23.60;99.90;;;;;;5046886;28;20211;-71
2021/08/21 12:49:30;;;;;;;2.83;2.63;;;23.70;99.90;;;;;;5046725;28;20204;-71
2021/08/21 12:51:58;;;;;;;2.65;2.50;;;23.70;99.90;;;;;;5046603;28;20575;-71